Time;durP1;ratioP1;P1;durP2;ratioP2;P2;SDS_P1;SDS_P2;PMS_P1;PMS_P2;Temp;Humidity;BMP_temperature;BMP_pressure;BME280_temperature;BME280_humidity;BME280_pressure;Samples;Min_cycle;Max_cycle;Signal;HPM_P1;HPM_P2
2022/05/10 00:01:03;;;;;;;;;;;;;;;21.72;38.68;101865.91;5121205;27;4167;-64
2022/05/10 00:03:31;;;;;;;;;;;;;;;21.72;38.72;101865.91;5122045;27;4187;-64
2022/05/10 00:05:58;;;;;;;;;;;;;;;21.73;38.59;101863.78;5110053;27;4209;-64
2022/05/10 00:08:25;;;;;;;;;;;;;;;21.73;38.46;101863.78;5119512;27;5226;-63
2022/05/10 00:10:51;;;;;;;;;;;;;;;21.72;38.66;101860.13;5101307;27;4086;-64
2022/05/10 00:13:18;;;;;;;;;;;;;;;21.72;38.68;101868.78;5113735;27;4306;-64
2022/05/10 00:15:47;;;;;;;;;;;;;;;21.71;38.61;101866.53;5118862;27;4042;-63
2022/05/10 00:18:14;;;;;;;;;;;;;;;21.71;38.70;101861.50;5121450;27;5058;-64
2022/05/10 00:20:40;;;;;;;;;;;;;;;21.72;38.55;101857.25;5119375;27;4227;-64
2022/05/10 00:23:07;;;;;;;;;;;;;;;21.71;38.73;101849.25;5119678;27;4335;-66
2022/05/10 00:25:33;;;;;;;;;;;;;;;21.71;38.72;101849.25;5118192;27;4273;-64
2022/05/10 00:28:00;;;;;;;;;;;;;;;21.70;38.72;101848.50;5120880;27;4222;-64
2022/05/10 00:30:26;;;;;;;;;;;;;;;21.70;38.71;101842.72;5096863;27;4250;-63
2022/05/10 00:32:53;;;;;;;;;;;;;;;21.70;38.68;101839.09;5116477;27;4202;-63
2022/05/10 00:35:24;;;;;;;;;;;;;;;21.69;38.72;101838.34;5119307;27;5423;-64
2022/05/10 00:37:50;;;;;;;;;;;;;;;21.70;38.63;101836.22;5121154;27;5391;-64
2022/05/10 00:40:18;;;;;;;;;;;;;;;21.70;38.58;101836.97;5117359;27;4052;-64
2022/05/10 00:42:51;;;;;;;;;;;;;;;21.70;38.48;101833.34;5119142;27;5269;-63
2022/05/10 00:45:19;;;;;;;;;;;;;;;21.69;38.49;101823.94;5103955;27;4206;-64
2022/05/10 00:47:47;;;;;;;;;;;;;;;21.69;38.59;101829.72;5095942;27;4097;-64
2022/05/10 00:50:16;;;;;;;;;;;;;;;21.69;38.49;101823.19;5099922;27;4194;-64
2022/05/10 00:52:42;;;;;;;;;;;;;;;21.69;38.52;101811.66;5100079;27;5316;-64
2022/05/10 00:55:16;;;;;;;;;;;;;;;21.68;38.71;101810.91;5119382;27;5435;-64
2022/05/10 00:58:06;;;;;;;;;;;;;;;21.67;38.68;101800.78;5120773;27;4225;-64
2022/05/10 01:00:32;;;;;;;;;;;;;;;21.68;38.53;101805.13;5109159;27;4301;-63
2022/05/10 01:03:10;;;;;;;;;;;;;;;21.68;38.55;101805.13;5118248;27;4022;-63
2022/05/10 01:05:42;;;;;;;;;;;;;;;21.67;38.58;101797.88;5120661;27;4083;-63
2022/05/10 01:08:22;;;;;;;;;;;;;;;21.67;38.68;101802.88;5118877;27;4207;-64
2022/05/10 01:10:56;;;;;;;;;;;;;;;21.67;38.56;101792.13;5103712;27;4098;-63
2022/05/10 01:13:45;;;;;;;;;;;;;;;21.66;38.63;101795.63;5106432;27;5311;-63
2022/05/10 01:16:21;;;;;;;;;;;;;;;21.66;38.55;101784.84;5110934;27;4204;-64
2022/05/10 01:18:47;;;;;;;;;;;;;;;21.65;38.80;101780.47;5117230;27;4349;-63
2022/05/10 01:21:53;;;;;;;;;;;;;;;21.65;38.71;101777.59;5114412;27;4077;-63
2022/05/10 01:24:31;;;;;;;;;;;;;;;21.65;38.65;101768.94;5116666;27;5339;-63
2022/05/10 01:27:08;;;;;;;;;;;;;;;21.65;38.69;101765.31;5105703;27;4026;-63
2022/05/10 01:29:34;;;;;;;;;;;;;;;21.64;38.59;101772.44;5100769;27;5345;-63
2022/05/10 01:34:45;;;;;;;;;;;;;;;21.64;38.70;101769.56;5103592;27;4292;-63
2022/05/10 01:37:14;;;;;;;;;;;;;;;21.64;38.51;101769.56;5117342;27;4252;-64
2022/05/10 01:39:42;;;;;;;;;;;;;;;21.63;38.51;101765.94;5100180;27;4231;-63
2022/05/10 01:42:19;;;;;;;;;;;;;;;21.64;38.55;101769.56;5117249;27;4107;-64
2022/05/10 01:44:55;;;;;;;;;;;;;;;21.58;38.61;101767.09;5105123;27;4019;-63
2022/05/10 01:47:31;;;;;;;;;;;;;;;21.57;38.64;101768.47;5103704;27;4311;-64
2022/05/10 01:50:02;;;;;;;;;;;;;;;21.56;38.74;101772.75;5106058;27;3974;-63
2022/05/10 01:52:41;;;;;;;;;;;;;;;21.55;38.79;101774.13;5099212;27;4090;-63
2022/05/10 01:55:17;;;;;;;;;;;;;;;21.54;38.92;101775.53;5118714;27;4277;-64
2022/05/10 01:57:44;;;;;;;;;;;;;;;21.54;38.86;101770.50;5102358;27;5320;-64
2022/05/10 02:00:10;;;;;;;;;;;;;;;21.55;38.80;101765.47;5116605;27;4227;-64
2022/05/10 02:02:41;;;;;;;;;;;;;;;21.54;38.74;101755.34;5119865;27;3960;-63
2022/05/10 02:05:10;;;;;;;;;;;;;;;21.54;38.68;101755.34;5104571;27;4242;-63
2022/05/10 02:07:36;;;;;;;;;;;;;;;21.54;38.86;101755.34;5116617;27;4147;-62
2022/05/10 02:10:15;;;;;;;;;;;;;;;21.53;38.67;101759.59;5105966;27;4111;-63
2022/05/10 02:12:43;;;;;;;;;;;;;;;21.53;38.81;101757.50;5101367;27;4373;-63
2022/05/10 02:15:25;;;;;;;;;;;;;;;21.52;38.67;101747.34;5106659;27;4067;-63
2022/05/10 02:18:10;;;;;;;;;;;;;;;21.51;38.84;101751.59;5120712;27;4300;-63
2022/05/10 02:20:53;;;;;;;;;;;;;;;21.52;38.78;101752.34;5119220;27;4118;-63
2022/05/10 02:23:22;;;;;;;;;;;;;;;21.51;38.65;101751.59;5097126;27;4210;-63
2022/05/10 02:25:51;;;;;;;;;;;;;;;21.51;38.66;101747.97;5105695;27;4028;-63
2022/05/10 02:28:36;;;;;;;;;;;;;;;21.51;38.62;101742.22;5116354;27;4073;-63
2022/05/10 02:31:07;;;;;;;;;;;;;;;21.50;38.73;101737.81;5105377;27;4207;-63
2022/05/10 02:33:33;;;;;;;;;;;;;;;21.49;38.93;101734.19;5103809;27;4153;-63
2022/05/10 02:36:00;;;;;;;;;;;;;;;21.49;38.86;101742.84;5100921;27;4487;-63
2022/05/10 02:38:32;;;;;;;;;;;;;;;21.49;38.88;101742.09;5115988;27;4256;-63
2022/05/10 02:40:59;;;;;;;;;;;;;;;21.48;38.70;101740.59;5105627;27;4147;-63
2022/05/10 02:43:29;;;;;;;;;;;;;;;21.48;38.77;101731.94;5117052;27;4205;-63
2022/05/10 02:45:56;;;;;;;;;;;;;;;21.48;38.76;101734.84;5116555;27;4162;-63
2022/05/10 02:48:42;;;;;;;;;;;;;;;21.48;38.76;101729.06;5115851;27;4252;-63
2022/05/10 02:51:09;;;;;;;;;;;;;;;21.48;38.64;101723.31;5117377;27;4219;-64
2022/05/10 02:53:35;;;;;;;;;;;;;;;21.47;38.71;101716.78;5117714;27;4264;-62
2022/05/10 02:56:08;;;;;;;;;;;;;;;21.46;38.85;101709.56;5118081;27;4612;-63
2022/05/10 02:58:57;;;;;;;;;;;;;;;21.50;38.81;101720.53;5117137;27;4164;-62
2022/05/10 03:01:30;;;;;;;;;;;;;;;21.48;38.77;101717.53;5109524;27;4179;-63
2022/05/10 03:03:57;;;;;;;;;;;;;;;21.47;38.91;101710.28;5106259;27;5088;-63
2022/05/10 03:06:24;;;;;;;;;;;;;;;21.47;38.84;101718.94;5116536;27;4236;-63
2022/05/10 03:08:53;;;;;;;;;;;;;;;21.47;38.91;101721.81;5116241;27;5478;-62
2022/05/10 03:11:20;;;;;;;;;;;;;;;21.46;39.01;101706.66;5115093;27;5486;-63
2022/05/10 03:13:47;;;;;;;;;;;;;;;21.45;38.85;101713.06;5087740;27;4064;-63
2022/05/10 03:16:19;;;;;;;;;;;;;;;21.46;38.95;101712.44;5110078;27;4205;-63
2022/05/10 03:18:46;;;;;;;;;;;;;;;21.47;39.07;101713.19;5116482;27;4217;-63
2022/05/10 03:21:12;;;;;;;;;;;;;;;21.55;38.87;101710.72;5114552;27;4166;-64
2022/05/10 03:23:39;;;;;;;;;;;;;;;21.56;38.90;101705.72;5118314;27;4167;-63
2022/05/10 03:26:05;;;;;;;;;;;;;;;21.55;38.78;101710.72;5117241;27;5161;-63
2022/05/10 03:28:34;;;;;;;;;;;;;;;21.54;38.75;101718.63;5104985;28;4342;-63
2022/05/10 03:31:01;;;;;;;;;;;;;;;21.53;38.61;101708.50;5118931;27;4445;-63
2022/05/10 03:33:27;;;;;;;;;;;;;;;21.52;38.70;101706.97;5116716;28;4261;-63
2022/05/10 03:35:54;;;;;;;;;;;;;;;21.54;38.91;101709.97;5116609;27;4351;-65
2022/05/10 03:38:21;;;;;;;;;;;;;;;21.51;39.11;101710.53;5081686;28;4283;-63
2022/05/10 03:40:47;;;;;;;;;;;;;;;21.51;38.97;101710.53;5108985;28;4196;-63
2022/05/10 03:43:13;;;;;;;;;;;;;;;21.50;38.55;101697.47;5115527;27;5330;-63
2022/05/10 03:45:40;;;;;;;;;;;;;;;21.48;38.47;101700.25;5117894;28;5423;-63
2022/05/10 03:48:06;;;;;;;;;;;;;;;21.46;38.48;101695.13;5116227;28;4917;-63
2022/05/10 03:50:33;;;;;;;;;;;;;;;21.47;38.45;101690.84;5117868;28;4177;-63
2022/05/10 03:52:59;;;;;;;;;;;;;;;21.46;38.18;101691.50;5115903;28;4010;-63
2022/05/10 03:55:26;;;;;;;;;;;;;;;21.46;38.25;101697.25;5117840;28;5285;-63
2022/05/10 03:57:52;;;;;;;;;;;;;;;21.45;38.12;101695.78;5114498;28;4238;-63
2022/05/10 04:00:20;;;;;;;;;;;;;;;21.44;38.13;101695.03;5117799;27;5502;-63
2022/05/10 04:02:47;;;;;;;;;;;;;;;21.43;38.21;101692.78;5118236;28;4028;-63
2022/05/10 04:05:14;;;;;;;;;;;;;;;21.43;38.32;101692.78;5117676;28;3973;-63
2022/05/10 04:07:40;;;;;;;;;;;;;;;21.43;38.04;101689.88;5116847;27;4079;-63
2022/05/10 04:10:08;;;;;;;;;;;;;;;21.41;38.04;101690.53;5118178;28;4607;-63
2022/05/10 04:12:37;;;;;;;;;;;;;;;21.42;37.92;101685.53;5114183;28;4634;-63
2022/05/10 04:15:04;;;;;;;;;;;;;;;21.41;38.01;101678.25;5117193;28;4274;-63
2022/05/10 04:17:31;;;;;;;;;;;;;;;21.41;38.01;101681.13;5114251;27;4123;-64
2022/05/10 04:19:57;;;;;;;;;;;;;;;21.43;38.34;101687.00;5114896;27;4052;-63
2022/05/10 04:22:24;;;;;;;;;;;;;;;21.43;38.21;101681.25;5110888;27;4176;-64
2022/05/10 04:25:11;;;;;;;;;;;;;;;21.41;38.07;101673.22;5118502;27;5295;-64
2022/05/10 04:27:37;;;;;;;;;;;;;;;21.39;38.15;101675.22;5118149;27;4028;-63
2022/05/10 04:30:04;;;;;;;;;;;;;;;21.40;38.06;101671.75;5121753;27;4208;-63
2022/05/10 04:32:30;;;;;;;;;;;;;;;21.41;38.06;101666.72;5119997;27;5432;-64
2022/05/10 04:34:56;;;;;;;;;;;;;;;21.42;38.10;101659.59;5120352;27;5918;-63
2022/05/10 04:37:23;;;;;;;;;;;;;;;21.43;38.10;101663.97;5119220;27;4182;-64
2022/05/10 04:42:34;;;;;;;;;;;;;;;21.44;38.12;101659.69;5115995;27;4351;-63
2022/05/10 04:45:00;;;;;;;;;;;;;;;21.44;38.04;101659.69;5116403;27;4223;-63
2022/05/10 04:47:27;;;;;;;;;;;;;;;21.49;37.99;101664.31;5117856;27;5215;-63
2022/05/10 04:49:53;;;;;;;;;;;;;;;21.44;38.47;101668.31;5118164;27;4071;-64
2022/05/10 04:52:20;;;;;;;;;;;;;;;21.48;38.37;101675.06;5116913;27;4345;-63
2022/05/10 04:54:46;;;;;;;;;;;;;;;21.38;37.64;101667.97;5115943;27;4386;-65
2022/05/10 04:57:12;;;;;;;;;;;;;;;21.28;37.23;101666.03;5116902;27;4214;-64
2022/05/10 04:59:39;;;;;;;;;;;;;;;21.24;37.21;101665.06;5117287;27;5574;-64
2022/05/10 05:02:05;;;;;;;;;;;;;;;21.20;37.03;101662.69;5115289;27;5127;-64
2022/05/10 05:04:36;;;;;;;;;;;;;;;21.19;37.09;101658.31;5115218;27;4178;-64
2022/05/10 05:07:02;;;;;;;;;;;;;;;21.18;37.09;101667.59;5110374;27;4085;-63
2022/05/10 05:09:28;;;;;;;;;;;;;;;21.16;37.20;101670.34;5117202;27;4123;-63
2022/05/10 05:11:56;;;;;;;;;;;;;;;21.13;37.28;101660.84;5117323;27;4197;-64
2022/05/10 05:14:23;;;;;;;;;;;;;;;21.13;37.54;101669.50;5114699;27;4562;-63
2022/05/10 05:16:49;;;;;;;;;;;;;;;21.11;37.71;101657.88;5114646;27;4279;-62
2022/05/10 05:19:15;;;;;;;;;;;;;;;21.11;37.55;101669.38;5113093;27;5293;-63
2022/05/10 05:21:42;;;;;;;;;;;;;;;21.12;37.75;101659.38;5118066;27;5469;-63
2022/05/10 05:24:11;;;;;;;;;;;;;;;21.09;37.54;101651.97;5116657;27;4267;-63
2022/05/10 05:26:37;;;;;;;;;;;;;;;21.08;37.61;101656.25;5115907;27;4078;-62
2022/05/10 05:29:04;;;;;;;;;;;;;;;21.08;37.49;101659.13;5113489;27;4247;-63
2022/05/10 05:31:30;;;;;;;;;;;;;;;21.05;37.38;101661.16;5114145;27;4376;-64
2022/05/10 05:33:56;;;;;;;;;;;;;;;21.06;37.36;101664.78;5111026;27;4861;-63
2022/05/10 05:36:23;;;;;;;;;;;;;;;21.05;37.42;101655.41;5115730;27;4168;-64
2022/05/10 05:38:50;;;;;;;;;;;;;;;21.03;37.43;101660.31;5114861;27;4080;-64
2022/05/10 05:41:17;;;;;;;;;;;;;;;21.00;37.44;101652.91;5117617;27;4309;-63
2022/05/10 05:43:43;;;;;;;;;;;;;;;21.02;37.59;101658.78;5116054;27;4255;-63
2022/05/10 05:46:10;;;;;;;;;;;;;;;21.00;37.39;101664.44;5115967;27;4226;-64
2022/05/10 05:48:37;;;;;;;;;;;;;;;20.99;37.66;101657.94;5115882;27;4359;-63
2022/05/10 05:51:03;;;;;;;;;;;;;;;20.99;37.78;101652.16;5110584;27;6240;-62
2022/05/10 05:53:30;;;;;;;;;;;;;;;20.99;37.73;101657.19;5117001;27;4043;-64
2022/05/10 05:56:03;;;;;;;;;;;;;;;21.04;38.08;101647.38;5099859;27;3979;-68
2022/05/10 05:58:29;;;;;;;;;;;;;;;21.06;37.70;101647.50;5110434;27;4530;-70
2022/05/10 06:00:56;;;;;;;;;;;;;;;21.03;39.72;101648.78;5113292;27;4034;-66
2022/05/10 06:03:22;;;;;;;;;;;;;;;21.24;41.52;101654.28;5111968;27;5257;-70
2022/05/10 06:05:49;;;;;;;;;;;;;;;21.34;39.63;101645.44;5103682;27;4050;-69
2022/05/10 06:08:16;;;;;;;;;;;;;;;21.30;38.61;101631.59;5108573;27;4151;-68
2022/05/10 06:10:42;;;;;;;;;;;;;;;21.46;37.95;101645.38;5110547;27;4020;-68
2022/05/10 06:13:09;;;;;;;;;;;;;;;21.51;37.73;101647.13;5108103;27;4048;-66
2022/05/10 06:15:36;;;;;;;;;;;;;;;21.51;37.89;101647.13;5106352;27;4477;-69
2022/05/10 06:18:04;;;;;;;;;;;;;;;21.56;37.90;101648.84;5107491;27;4184;-70
2022/05/10 06:20:31;;;;;;;;;;;;;;;21.44;37.95;101648.91;5110092;27;4961;-64
2022/05/10 06:22:57;;;;;;;;;;;;;;;21.33;38.22;101643.97;5107485;27;4176;-66
2022/05/10 06:25:23;;;;;;;;;;;;;;;21.29;38.15;101649.50;5108668;27;4152;-69
2022/05/10 06:27:50;;;;;;;;;;;;;;;21.24;38.30;101639.88;5113743;27;4314;-66
2022/05/10 06:30:17;;;;;;;;;;;;;;;21.28;38.27;101645.88;5117229;27;4509;-69
2022/05/10 06:32:43;;;;;;;;;;;;;;;21.45;38.15;101641.75;5112211;27;4245;-69
2022/05/10 06:35:09;;;;;;;;;;;;;;;21.52;38.03;101640.69;5112423;27;4218;-68
2022/05/10 06:40:22;;;;;;;;;;;;;;;21.30;38.15;101634.47;5114049;27;4192;-67
2022/05/10 06:42:48;;;;;;;;;;;;;;;21.33;38.69;101624.53;5114240;27;4048;-66
2022/05/10 06:45:15;;;;;;;;;;;;;;;21.46;38.22;101625.22;5109972;27;4205;-66
2022/05/10 06:47:42;;;;;;;;;;;;;;;21.53;38.46;101616.28;5112257;27;4073;-65
2022/05/10 06:50:09;;;;;;;;;;;;;;;21.58;38.26;101614.34;5116287;27;5349;-63
2022/05/10 06:52:36;;;;;;;;;;;;;;;21.52;38.32;101620.53;5115325;27;4211;-67
2022/05/10 06:55:02;;;;;;;;;;;;;;;21.43;38.60;101623.63;5113659;27;5084;-67
2022/05/10 06:57:29;;;;;;;;;;;;;;;21.48;38.48;101622.44;5111283;27;4273;-65
2022/05/10 06:59:55;;;;;;;;;;;;;;;21.32;38.71;101620.13;5115781;27;4173;-67
2022/05/10 07:02:23;;;;;;;;;;;;;;;21.26;38.99;101610.44;5109116;27;4630;-64
2022/05/10 07:04:49;;;;;;;;;;;;;;;21.28;38.71;101614.19;5105467;27;4290;-67
2022/05/10 07:07:16;;;;;;;;;;;;;;;21.30;38.71;101604.88;5112282;27;4253;-66
2022/05/10 07:09:42;;;;;;;;;;;;;;;21.28;39.14;101607.66;5110879;27;4355;-68
2022/05/10 07:12:08;;;;;;;;;;;;;;;21.55;38.98;101612.72;5117211;27;5335;-64
2022/05/10 07:14:35;;;;;;;;;;;;;;;21.54;38.99;101605.50;5113628;27;4235;-66
2022/05/10 07:17:01;;;;;;;;;;;;;;;21.55;39.31;101604.09;5119219;27;4305;-67
2022/05/10 07:19:27;;;;;;;;;;;;;;;21.56;39.01;101601.97;5118902;27;4169;-68
2022/05/10 07:21:54;;;;;;;;;;;;;;;21.57;38.76;101597.69;5108774;27;4335;-68
2022/05/10 07:24:20;;;;;;;;;;;;;;;21.50;39.02;101600.25;5114945;27;4262;-68
2022/05/10 07:26:46;;;;;;;;;;;;;;;21.46;39.01;101593.53;5109730;27;4186;-69
2022/05/10 07:29:13;;;;;;;;;;;;;;;21.44;39.18;101582.66;5113775;27;4187;-68
2022/05/10 07:31:39;;;;;;;;;;;;;;;21.43;39.70;101589.03;5109691;27;4167;-68
2022/05/10 07:34:06;;;;;;;;;;;;;;;21.41;40.00;101591.81;5113270;27;4051;-65
2022/05/10 07:36:35;;;;;;;;;;;;;;;21.50;40.02;101599.50;5110677;27;4203;-68
2022/05/10 07:39:02;;;;;;;;;;;;;;;21.63;40.04;101583.63;5115288;27;4116;-64
2022/05/10 07:41:29;;;;;;;;;;;;;;;21.75;39.75;101584.97;5111827;27;4270;-65
2022/05/10 07:43:56;;;;;;;;;;;;;;;21.79;39.82;101583.72;5075311;28;4043;-69
2022/05/10 07:46:22;;;;;;;;;;;;;;;21.84;39.80;101573.88;5110001;27;4240;-69
2022/05/10 07:48:48;;;;;;;;;;;;;;;21.85;39.61;101575.38;5110587;27;4254;-68
2022/05/10 07:51:15;;;;;;;;;;;;;;;21.86;39.82;101576.88;5111633;27;4113;-66
2022/05/10 07:53:42;;;;;;;;;;;;;;;21.87;39.60;101572.59;5102992;27;4216;-67
2022/05/10 07:56:13;;;;;;;;;;;;;;;21.82;39.50;101565.88;5104324;27;5923;-66
2022/05/10 07:58:52;;;;;;;;;;;;;;;21.89;39.59;101569.81;5117370;27;4276;-66
2022/05/10 08:01:19;;;;;;;;;;;;;;;21.92;39.77;101571.41;5119275;27;4593;-66
2022/05/10 08:03:46;;;;;;;;;;;;;;;21.99;39.86;101569.56;5119271;27;4242;-67
2022/05/10 08:06:12;;;;;;;;;;;;;;;22.05;39.61;101559.09;5116063;27;4231;-68
2022/05/10 08:08:39;;;;;;;;;;;;;;;22.06;39.65;101557.72;5115398;27;5437;-66
2022/05/10 08:11:06;;;;;;;;;;;;;;;22.06;39.47;101560.63;5117824;27;4815;-70
2022/05/10 08:13:32;;;;;;;;;;;;;;;21.89;39.41;101556.13;5107797;27;4241;-74
2022/05/10 08:15:58;;;;;;;;;;;;;;;21.80;39.69;101556.38;5115597;27;4517;-74
2022/05/10 08:18:25;;;;;;;;;;;;;;;21.75;39.88;101556.16;5116643;27;4375;-72
2022/05/10 08:20:52;;;;;;;;;;;;;;;21.72;39.79;101557.44;5120261;27;5172;-73
2022/05/10 08:23:21;;;;;;;;;;;;;;;21.70;39.86;101551.56;5120967;27;4041;-70
2022/05/10 08:25:48;;;;;;;;;;;;;;;21.69;39.91;101552.97;5100710;27;4043;-71
2022/05/10 08:28:14;;;;;;;;;;;;;;;21.67;39.79;101544.22;5097829;27;4114;-69
2022/05/10 08:30:41;;;;;;;;;;;;;;;21.67;39.86;101543.44;5118802;27;4243;-70
2022/05/10 08:33:10;;;;;;;;;;;;;;;21.67;39.72;101537.69;5110952;27;5501;-69
2022/05/10 08:35:40;;;;;;;;;;;;;;;21.64;39.75;101533.97;5110935;27;4280;-71
2022/05/10 08:38:06;;;;;;;;;;;;;;;21.65;39.83;101535.47;5113414;27;4259;-71
2022/05/10 08:40:34;;;;;;;;;;;;;;;21.65;39.84;101535.47;5116781;27;5814;-71
2022/05/10 08:43:02;;;;;;;;;;;;;;;21.65;39.86;101529.69;5102213;27;4233;-70
2022/05/10 08:45:29;;;;;;;;;;;;;;;21.65;40.11;101526.09;5098252;27;4201;-70
2022/05/10 08:47:55;;;;;;;;;;;;;;;21.70;40.27;101522.75;5116630;27;5883;-74
2022/05/10 08:50:22;;;;;;;;;;;;;;;21.96;40.24;101522.59;5117961;27;5307;-74
2022/05/10 08:53:02;;;;;;;;;;;;;;;22.08;39.55;101520.34;5119633;27;4419;-64
2022/05/10 08:55:30;;;;;;;;;;;;;;;22.14;39.80;101523.50;5113551;27;4759;-69
2022/05/10 08:58:03;;;;;;;;;;;;;;;22.16;39.38;101520.72;5116141;27;4224;-64
2022/05/10 09:00:31;;;;;;;;;;;;;;;22.13;39.69;101524.91;5117343;27;4211;-65
2022/05/10 09:02:58;;;;;;;;;;;;;;;22.25;39.90;101512.50;5101243;27;4221;-62
2022/05/10 09:05:38;;;;;;;;;;;;;;;22.34;39.36;101514.41;5114664;27;4237;-70
2022/05/10 09:08:21;;;;;;;;;;;;;;;22.32;39.32;101505.63;5115034;27;5517;-66
2022/05/10 09:10:49;;;;;;;;;;;;;;;22.29;38.81;101501.91;5112594;27;4379;-67
2022/05/10 09:13:16;;;;;;;;;;;;;;;22.28;38.84;101500.41;5115198;27;5186;-68
2022/05/10 09:15:44;;;;;;;;;;;;;;;22.27;38.93;101492.41;5103180;27;4069;-67
2022/05/10 09:18:17;;;;;;;;;;;;;;;22.28;39.22;101485.25;5111715;27;4123;-65
2022/05/10 09:20:46;;;;;;;;;;;;;;;22.29;39.05;101483.84;5113152;27;4253;-68
2022/05/10 09:23:16;;;;;;;;;;;;;;;22.27;39.07;101486.66;5094716;27;4238;-67
2022/05/10 09:25:43;;;;;;;;;;;;;;;22.27;39.34;101492.41;5098355;27;5254;-68
2022/05/10 09:28:14;;;;;;;;;;;;;;;22.29;39.28;101478.09;5114694;27;4095;-70
2022/05/10 09:30:40;;;;;;;;;;;;;;;22.35;39.37;101481.25;5103197;27;4053;-69
2022/05/10 09:36:10;;;;;;;;;;;;;;;22.41;39.26;101478.66;5110589;27;4395;-67
2022/05/10 09:38:47;;;;;;;;;;;;;;;22.44;39.23;101479.50;5111913;27;4147;-68
2022/05/10 09:41:46;;;;;;;;;;;;;;;22.45;39.54;101467.31;5108534;27;5122;-69
2022/05/10 09:44:17;;;;;;;;;;;;;;;22.43;39.54;101464.34;5078027;27;4493;-67
2022/05/10 09:46:44;;;;;;;;;;;;;;;22.42;39.48;101462.81;5111185;27;4140;-64
2022/05/10 09:49:34;;;;;;;;;;;;;;;22.45;39.38;101467.31;5111566;27;5241;-67
2022/05/10 09:52:00;;;;;;;;;;;;;;;22.49;39.52;101455.94;5103929;27;4681;-63
2022/05/10 09:54:30;;;;;;;;;;;;;;;22.54;39.78;101459.78;5108739;27;5498;-66
2022/05/10 09:56:58;;;;;;;;;;;;;;;22.55;40.05;101464.91;5099064;27;4177;-63
2022/05/10 09:59:28;;;;;;;;;;;;;;;22.52;39.43;101457.56;5115404;27;5259;-64
2022/05/10 10:01:56;;;;;;;;;;;;;;;22.48;39.37;101460.25;5115097;27;4423;-64
2022/05/10 10:04:32;;;;;;;;;;;;;;;22.45;39.61;101450.00;5113074;27;4187;-61
2022/05/10 10:07:02;;;;;;;;;;;;;;;22.28;39.59;101453.50;5104398;27;4244;-64
2022/05/10 10:09:30;;;;;;;;;;;;;;;22.21;39.52;101449.56;5115771;27;4280;-64
2022/05/10 10:11:57;;;;;;;;;;;;;;;22.17;39.83;101437.81;5095276;27;4174;-63
2022/05/10 10:14:38;;;;;;;;;;;;;;;22.13;40.06;101432.59;5118824;27;4026;-64
2022/05/10 10:17:04;;;;;;;;;;;;;;;22.11;39.87;101429.63;5111129;27;5631;-64
2022/05/10 10:19:38;;;;;;;;;;;;;;;22.09;40.08;101420.13;5112601;27;4190;-64
2022/05/10 10:22:07;;;;;;;;;;;;;;;22.03;40.32;101423.44;5112655;27;4113;-61
2022/05/10 10:24:35;;;;;;;;;;;;;;;22.26;40.40;101424.56;5086026;27;4195;-62
2022/05/10 10:27:09;;;;;;;;;;;;;;;22.36;40.28;101416.38;5092577;27;4233;-62
2022/05/10 10:29:41;;;;;;;;;;;;;;;22.43;39.76;101411.66;5111476;27;4012;-63
2022/05/10 10:32:09;;;;;;;;;;;;;;;22.45;39.98;101412.50;5107981;27;4928;-61
2022/05/10 10:34:51;;;;;;;;;;;;;;;22.53;40.09;101409.97;5092947;27;5280;-62
2022/05/10 10:37:26;;;;;;;;;;;;;;;22.52;39.72;101394.06;5091175;27;4660;-61
2022/05/10 10:39:57;;;;;;;;;;;;;;;22.52;39.81;101401.97;5107845;27;3987;-61
2022/05/10 10:42:27;;;;;;;;;;;;;;;22.50;39.78;101399.72;5115917;27;4373;-60
2022/05/10 10:44:55;;;;;;;;;;;;;;;22.51;39.80;101392.56;5102434;27;5200;-61
2022/05/10 10:47:22;;;;;;;;;;;;;;;22.53;39.80;101386.88;5112009;27;4124;-61
2022/05/10 10:49:53;;;;;;;;;;;;;;;22.55;40.00;101378.31;5113874;27;5632;-65
2022/05/10 10:52:19;;;;;;;;;;;;;;;22.58;40.09;101365.44;5116606;27;5352;-63
2022/05/10 10:54:46;;;;;;;;;;;;;;;22.61;39.91;101369.19;5113098;27;4438;-63
2022/05/10 10:57:15;;;;;;;;;;;;;;;22.59;39.57;101366.22;5106440;27;5569;-62
2022/05/10 10:59:48;;;;;;;;;;;;;;;22.61;39.58;101362.66;5111656;27;4286;-62
2022/05/10 11:02:21;;;;;;;;;;;;;;;22.61;39.56;101363.44;5099698;27;4347;-62
2022/05/10 11:05:00;;;;;;;;;;;;;;;22.62;39.64;101358.38;5100869;27;3961;-61
2022/05/10 11:07:48;;;;;;;;;;;;;;;22.63;39.67;101354.09;5111538;27;4916;-60
2022/05/10 11:10:23;;;;;;;;;;;;;;;22.64;39.69;101349.81;5100295;27;4073;-61
2022/05/10 11:12:59;;;;;;;;;;;;;;;22.69;39.57;101355.13;5094615;27;4042;-61
2022/05/10 11:15:40;;;;;;;;;;;;;;;22.63;39.76;101354.09;5097632;27;5546;-62
2022/05/10 11:18:19;;;;;;;;;;;;;;;22.66;39.94;101342.00;5116066;27;4130;-62
2022/05/10 11:20:47;;;;;;;;;;;;;;;22.66;39.48;101332.59;5117437;27;4297;-66
2022/05/10 11:23:17;;;;;;;;;;;;;;;22.62;40.11;101336.03;5088663;28;6280;-63
2022/05/10 11:25:50;;;;;;;;;;;;;;;22.62;39.63;101335.31;5090776;27;5196;-61
2022/05/10 11:28:20;;;;;;;;;;;;;;;22.63;40.00;101325.22;5095004;27;4102;-63
2022/05/10 11:30:57;;;;;;;;;;;;;;;22.59;40.20;101328.69;5096200;28;5325;-63
2022/05/10 11:33:42;;;;;;;;;;;;;;;22.64;40.54;101320.97;5099530;28;5331;-64
2022/05/10 11:36:16;;;;;;;;;;;;;;;22.76;40.19;101319.34;5108009;27;4160;-64
2022/05/10 11:38:50;;;;;;;;;;;;;;;22.73;40.30;101312.00;5096756;28;4517;-61
2022/05/10 11:41:35;;;;;;;;;;;;;;;22.74;40.43;101306.97;5098795;28;4181;-61
2022/05/10 11:44:15;;;;;;;;;;;;;;;22.74;40.31;101310.59;5114960;27;4007;-60
2022/05/10 11:46:44;;;;;;;;;;;;;;;22.79;40.46;101308.63;5090996;27;5135;-61
2022/05/10 11:49:25;;;;;;;;;;;;;;;22.84;40.26;101304.53;5111485;27;5283;-61
2022/05/10 11:51:55;;;;;;;;;;;;;;;22.77;39.60;101285.44;5089455;27;4213;-62
2022/05/10 11:54:33;;;;;;;;;;;;;;;22.67;39.62;101279.97;5093948;27;5215;-63
2022/05/10 11:56:59;;;;;;;;;;;;;;;22.61;39.90;101271.06;5106700;27;4743;-68
2022/05/10 11:59:29;;;;;;;;;;;;;;;22.62;40.64;101271.78;5094461;27;5402;-64
2022/05/10 12:01:55;;;;;;;;;;;;;;;22.79;40.36;101277.63;5094847;28;4151;-62
2022/05/10 12:04:40;;;;;;;;;;;;;;;22.88;40.16;101266.41;5118229;28;4036;-63
2022/05/10 12:07:19;;;;;;;;;;;;;;;22.93;40.41;101265.16;5109194;27;5597;-61
2022/05/10 12:09:51;;;;;;;;;;;;;;;22.97;40.50;101260.31;5115277;27;4238;-61
2022/05/10 12:12:32;;;;;;;;;;;;;;;22.86;40.47;101261.31;5115304;27;4178;-62
2022/05/10 12:21:27;;;;;;;;;;;;;;;22.94;41.01;101252.97;5106709;27;4197;-61
2022/05/10 12:24:12;;;;;;;;;;;;;;;23.05;40.88;101259.22;4992985;28;4133;-62
2022/05/10 12:26:45;;;;;;;;;;;;;;;23.03;40.54;101244.69;5083535;28;4014;-68
2022/05/10 12:29:34;;;;;;;;;;;;;;;22.94;41.10;101249.34;5103641;28;5580;-65
2022/05/10 12:32:09;;;;;;;;;;;;;;;23.03;41.05;101250.47;5118968;28;4137;-68
2022/05/10 12:34:42;;;;;;;;;;;;;;;23.12;40.87;101252.28;5115682;28;4144;-65
2022/05/10 12:37:33;;;;;;;;;;;;;;;23.20;40.65;101235.25;5112616;27;4169;-66
2022/05/10 12:40:12;;;;;;;;;;;;;;;23.24;40.55;101231.81;5114777;27;4210;-66
2022/05/10 12:42:40;;;;;;;;;;;;;;;23.23;40.77;101236.84;5105159;27;4118;-62
2022/05/10 12:45:13;;;;;;;;;;;;;;;23.25;40.57;101230.38;5092236;27;4293;-63
2022/05/10 12:48:12;;;;;;;;;;;;;;;23.25;40.87;101219.59;5105436;27;4065;-66
2022/05/10 12:50:53;;;;;;;;;;;;;;;23.26;40.60;101223.22;5094144;27;4150;-63
2022/05/10 12:53:23;;;;;;;;;;;;;;;23.23;41.11;101219.50;5094104;27;4364;-66
2022/05/10 12:55:51;;;;;;;;;;;;;;;23.26;41.15;101214.56;5113168;27;4159;-66
2022/05/10 12:58:22;;;;;;;;;;;;;;;23.24;40.80;101203.66;5100597;27;4193;-66
2022/05/10 13:00:49;;;;;;;;;;;;;;;23.21;40.66;101202.84;5098140;27;4600;-67
2022/05/10 13:03:21;;;;;;;;;;;;;;;23.25;40.95;101208.03;5117260;27;4173;-65
2022/05/10 13:06:02;;;;;;;;;;;;;;;23.17;41.16;101204.81;5107647;27;4065;-64
2022/05/10 13:08:34;;;;;;;;;;;;;;;23.15;41.21;101193.16;5120609;27;4057;-64
2022/05/10 13:11:21;;;;;;;;;;;;;;;23.10;40.96;101195.16;5111891;27;4615;-66
2022/05/10 13:13:47;;;;;;;;;;;;;;;23.00;40.95;101186.84;5119444;27;4101;-67
2022/05/10 13:16:14;;;;;;;;;;;;;;;22.93;41.27;101184.31;5113230;27;4179;-67
2022/05/10 13:18:41;;;;;;;;;;;;;;;22.95;41.15;101190.94;5099032;27;4077;-66
2022/05/10 13:21:07;;;;;;;;;;;;;;;23.08;41.17;101182.78;5112679;27;4100;-66